createdAt,value
2023-06-10T00:01:37.837Z,100.00
2023-06-10T00:04:05.597Z,100.00
2023-06-10T00:06:37.057Z,100.00
2023-06-10T00:09:06.174Z,100.00
2023-06-10T00:11:33.721Z,100.00
2023-06-10T00:14:01.507Z,100.00
2023-06-10T00:16:29.089Z,100.00
2023-06-10T00:19:02.358Z,100.00
2023-06-10T00:21:29.757Z,100.00
2023-06-10T00:23:57.632Z,100.00
2023-06-10T00:26:24.807Z,100.00
2023-06-10T00:28:53.508Z,100.00
2023-06-10T00:31:21.912Z,100.00
2023-06-10T00:33:48.984Z,100.00
2023-06-10T00:36:16.191Z,100.00
2023-06-10T00:38:43.157Z,100.00
2023-06-10T00:41:10.228Z,100.00
2023-06-10T00:43:37.310Z,100.00
2023-06-10T00:46:04.481Z,100.00
2023-06-10T00:48:31.826Z,100.00
2023-06-10T00:51:00.764Z,100.00
2023-06-10T00:53:29.421Z,100.00
2023-06-10T00:55:56.521Z,100.00
2023-06-10T00:58:25.337Z,100.00
2023-06-10T01:00:53.130Z,100.00
2023-06-10T01:03:20.299Z,100.00
2023-06-10T01:06:01.776Z,100.00
2023-06-10T01:08:42.853Z,100.00
2023-06-10T01:11:18.884Z,100.00
2023-06-10T01:13:46.713Z,100.00
2023-06-10T01:16:14.082Z,100.00
2023-06-10T01:18:41.671Z,100.00
2023-06-10T01:21:10.425Z,100.00
2023-06-10T01:23:39.062Z,100.00
2023-06-10T01:26:11.749Z,100.00
2023-06-10T01:28:55.595Z,100.00
2023-06-10T01:31:35.394Z,100.00
2023-06-10T01:34:04.190Z,100.00
2023-06-10T01:36:33.217Z,100.00
2023-06-10T01:39:02.073Z,100.00
2023-06-10T01:41:29.977Z,100.00
2023-06-10T01:43:56.840Z,100.00
2023-06-10T01:46:24.118Z,100.00
2023-06-10T01:48:51.150Z,100.00
2023-06-10T01:51:18.125Z,100.00
2023-06-10T01:53:45.369Z,100.00
2023-06-10T01:56:17.800Z,100.00
2023-06-10T01:58:45.205Z,100.00
2023-06-10T02:01:12.439Z,100.00
2023-06-10T02:03:39.565Z,100.00
2023-06-10T02:06:06.619Z,100.00
2023-06-10T02:08:33.694Z,100.00
2023-06-10T02:11:01.261Z,100.00
2023-06-10T02:13:30.572Z,100.00
2023-06-10T02:15:58.316Z,100.00
2023-06-10T02:18:29.846Z,100.00
2023-06-10T02:20:56.885Z,100.00
2023-06-10T02:23:24.302Z,100.00
2023-06-10T02:25:51.260Z,100.00
2023-06-10T02:28:18.842Z,100.00
2023-06-10T02:30:48.053Z,100.00
2023-06-10T02:33:16.017Z,100.00
2023-06-10T02:35:44.294Z,100.00
2023-06-10T02:38:11.236Z,100.00
2023-06-10T02:40:38.425Z,100.00
2023-06-10T02:43:05.512Z,100.00
2023-06-10T02:45:33.308Z,100.00
2023-06-10T02:48:02.020Z,100.00
2023-06-10T02:50:29.429Z,100.00
2023-06-10T02:53:03.602Z,100.00
2023-06-10T02:55:31.833Z,100.00
2023-06-10T02:58:03.979Z,100.00
2023-06-10T03:00:32.155Z,100.00
2023-06-10T03:02:59.424Z,100.00
2023-06-10T03:05:32.370Z,100.00
2023-06-10T03:08:02.264Z,100.00
2023-06-10T03:10:30.888Z,100.00
2023-06-10T03:12:57.847Z,100.00
2023-06-10T03:15:26.099Z,100.00
2023-06-10T03:17:53.681Z,100.00
2023-06-10T03:20:20.841Z,100.00
2023-06-10T03:22:48.143Z,100.00
2023-06-10T03:25:15.944Z,100.00
2023-06-10T03:27:47.039Z,100.00
2023-06-10T03:30:15.172Z,100.00
2023-06-10T03:32:44.420Z,100.00
2023-06-10T03:35:14.726Z,100.00
2023-06-10T03:37:42.245Z,100.00
2023-06-10T03:40:09.930Z,100.00
2023-06-10T03:42:39.041Z,100.00
2023-06-10T03:45:07.287Z,100.00
2023-06-10T03:47:39.704Z,100.00
2023-06-10T03:50:10.617Z,100.00
2023-06-10T03:52:40.233Z,100.00
2023-06-10T03:55:08.348Z,100.00
2023-06-10T03:57:35.814Z,100.00
2023-06-10T04:00:07.809Z,100.00
2023-06-10T04:02:48.426Z,100.00
2023-06-10T04:05:27.562Z,100.00
2023-06-10T04:07:54.592Z,100.00
2023-06-10T04:10:21.820Z,100.00
2023-06-10T04:12:48.972Z,100.00
2023-06-10T04:15:16.201Z,100.00
2023-06-10T04:17:44.133Z,100.00
2023-06-10T04:20:12.258Z,100.00
2023-06-10T04:22:43.761Z,100.00
2023-06-10T04:25:11.739Z,100.00
2023-06-10T04:27:40.157Z,100.00
2023-06-10T04:30:07.736Z,100.00
2023-06-10T04:32:36.945Z,100.00
2023-06-10T04:35:04.881Z,100.00
2023-06-10T04:37:32.374Z,100.00
2023-06-10T04:40:00.431Z,100.00
2023-06-10T04:42:28.359Z,100.00
2023-06-10T04:44:55.535Z,100.00
2023-06-10T04:47:22.468Z,100.00
2023-06-10T04:49:49.899Z,100.00
2023-06-10T04:52:19.234Z,100.00
2023-06-10T04:54:47.005Z,100.00
2023-06-10T04:57:13.921Z,100.00
2023-06-10T04:59:40.851Z,100.00
2023-06-10T05:02:07.887Z,100.00
2023-06-10T05:04:35.169Z,100.00
2023-06-10T05:07:02.035Z,100.00
2023-06-10T05:09:28.914Z,100.00
2023-06-10T05:11:55.871Z,100.00
2023-06-10T05:14:23.028Z,100.00
2023-06-10T05:16:50.358Z,100.00
2023-06-10T05:19:20.624Z,100.00
2023-06-10T05:21:47.691Z,100.00
2023-06-10T05:24:14.973Z,100.00
2023-06-10T05:26:42.323Z,100.00
2023-06-10T05:29:10.379Z,100.00
2023-06-10T05:31:37.416Z,100.00
2023-06-10T05:34:04.502Z,100.00
2023-06-10T05:36:31.466Z,100.00
2023-06-10T05:38:58.337Z,100.00
2023-06-10T05:41:25.301Z,100.00
2023-06-10T05:43:52.225Z,100.00
2023-06-10T05:46:19.203Z,100.00
2023-06-10T05:48:46.271Z,100.00
2023-06-10T05:51:13.188Z,100.00
2023-06-10T05:53:40.842Z,100.00
2023-06-10T05:56:07.941Z,100.00
2023-06-10T05:58:34.982Z,100.00
2023-06-10T06:01:01.940Z,100.00
2023-06-10T06:03:30.161Z,100.00
2023-06-10T06:05:57.212Z,100.00
2023-06-10T06:08:24.153Z,100.00
2023-06-10T06:10:51.606Z,100.00
2023-06-10T06:13:18.711Z,100.00
2023-06-10T06:15:46.081Z,100.00
2023-06-10T06:18:13.106Z,100.00
2023-06-10T06:20:40.353Z,100.00
2023-06-10T06:23:07.435Z,100.00
2023-06-10T06:25:35.056Z,100.00
2023-06-10T06:28:02.125Z,100.00
2023-06-10T06:30:29.040Z,100.00
2023-06-10T06:32:56.561Z,100.00
2023-06-10T06:35:23.551Z,100.00
2023-06-10T06:37:50.691Z,100.00
2023-06-10T06:40:22.724Z,100.00
2023-06-10T06:42:50.176Z,100.00
2023-06-10T06:45:35.803Z,100.00
2023-06-10T06:48:03.715Z,100.00
2023-06-10T06:50:30.716Z,100.00
2023-06-10T06:52:57.643Z,100.00
2023-06-10T06:55:24.465Z,100.00
2023-06-10T06:57:51.336Z,100.00
2023-06-10T07:00:18.813Z,100.00
2023-06-10T07:02:45.993Z,100.00
2023-06-10T07:05:13.322Z,100.00
2023-06-10T07:07:40.783Z,100.00
2023-06-10T07:10:08.166Z,100.00
2023-06-10T07:12:35.071Z,100.00
2023-06-10T07:15:02.055Z,100.00
2023-06-10T07:17:29.076Z,100.00
2023-06-10T07:19:58.527Z,100.00
2023-06-10T07:22:25.635Z,100.00
2023-06-10T07:24:53.090Z,100.00
2023-06-10T07:27:20.132Z,100.00
2023-06-10T07:29:47.180Z,100.00
2023-06-10T07:32:14.098Z,100.00
2023-06-10T07:34:40.987Z,100.00
2023-06-10T07:37:08.128Z,100.00
2023-06-10T07:39:35.197Z,100.00
2023-06-10T07:42:02.430Z,100.00
2023-06-10T07:44:30.267Z,100.00
2023-06-10T07:46:58.965Z,100.00
2023-06-10T07:49:25.944Z,100.00
2023-06-10T07:51:56.131Z,100.00
2023-06-10T07:54:23.174Z,100.00
2023-06-10T07:56:50.415Z,100.00
2023-06-10T07:59:17.365Z,100.00
2023-06-10T08:01:44.356Z,100.00
2023-06-10T08:04:12.614Z,100.00
2023-06-10T08:06:39.804Z,100.00
2023-06-10T08:09:06.714Z,100.00
2023-06-10T08:11:33.692Z,100.00
2023-06-10T08:14:00.619Z,100.00
2023-06-10T08:16:27.548Z,100.00
2023-06-10T08:18:55.951Z,100.00
2023-06-10T08:21:23.057Z,100.00
2023-06-10T08:23:54.230Z,100.00
2023-06-10T08:26:21.351Z,97.35
2023-06-10T08:28:48.401Z,95.04
2023-06-10T08:31:15.839Z,97.01
2023-06-10T08:33:43.694Z,98.74
2023-06-10T08:36:10.693Z,95.67
2023-06-10T08:38:37.812Z,94.20
2023-06-10T08:41:06.755Z,91.34
2023-06-10T08:43:38.654Z,93.33
2023-06-10T08:46:06.642Z,88.20
2023-06-10T08:48:37.003Z,88.35
2023-06-10T08:51:05.786Z,88.63
2023-06-10T08:53:37.626Z,87.77
2023-06-10T08:56:07.307Z,85.09
2023-06-10T08:58:36.544Z,84.14
2023-06-10T09:01:03.672Z,80.77
2023-06-10T09:03:31.699Z,82.55
2023-06-10T09:05:59.160Z,82.72
2023-06-10T09:08:26.186Z,82.14
2023-06-10T09:10:53.242Z,77.80
2023-06-10T09:13:20.446Z,76.93
2023-06-10T09:15:47.508Z,76.87
2023-06-10T09:18:14.611Z,78.98
2023-06-10T09:20:44.198Z,77.40
2023-06-10T09:23:11.152Z,77.23
2023-06-10T09:25:39.760Z,76.85
2023-06-10T09:28:15.023Z,75.00
2023-06-10T09:30:42.747Z,71.97
2023-06-10T09:33:18.731Z,74.73
2023-06-10T09:35:50.651Z,74.53
2023-06-10T09:38:22.919Z,74.66
2023-06-10T09:40:54.926Z,73.63
2023-06-10T09:43:22.478Z,67.38
2023-06-10T09:45:51.075Z,69.58
2023-06-10T09:48:18.129Z,70.92
2023-06-10T09:50:46.537Z,68.38
2023-06-10T09:53:13.602Z,66.48
2023-06-10T09:55:42.295Z,65.26
2023-06-10T09:58:09.234Z,64.78
2023-06-10T10:00:36.367Z,63.98
2023-06-10T10:03:03.485Z,64.20
2023-06-10T10:05:31.213Z,63.36
2023-06-10T10:07:58.278Z,64.64
2023-06-10T10:10:25.255Z,63.25
2023-06-10T10:12:57.608Z,60.79
2023-06-10T10:15:29.876Z,60.90
2023-06-10T10:18:03.742Z,62.30
2023-06-10T10:20:34.409Z,58.14
2023-06-10T10:23:04.332Z,58.48
2023-06-10T10:25:36.074Z,59.76
2023-06-10T10:28:13.331Z,56.93
2023-06-10T10:30:47.877Z,57.98
2023-06-10T10:33:24.385Z,60.02
2023-06-10T10:35:52.454Z,60.22
2023-06-10T10:38:20.756Z,60.08
2023-06-10T10:40:48.648Z,61.43
2023-06-10T10:43:17.102Z,59.02
2023-06-10T10:45:47.341Z,59.04
2023-06-10T10:48:16.270Z,61.30
2023-06-10T10:50:43.215Z,58.43
2023-06-10T10:53:10.247Z,56.10
2023-06-10T10:55:37.395Z,56.75
2023-06-10T10:58:06.883Z,51.78
2023-06-10T11:00:39.340Z,51.38
2023-06-10T11:03:13.471Z,50.06
2023-06-10T11:05:49.410Z,51.54
2023-06-10T11:08:34.617Z,54.67
2023-06-10T11:11:01.965Z,53.52
2023-06-10T11:13:28.957Z,52.92
2023-06-10T11:15:59.271Z,51.55
2023-06-10T11:18:30.537Z,52.88
2023-06-10T11:21:03.732Z,52.37
2023-06-10T11:23:32.169Z,52.45
2023-06-10T11:26:33.773Z,51.28
2023-06-10T11:29:01.010Z,50.35
2023-06-10T11:31:31.932Z,52.23
2023-06-10T11:34:04.567Z,52.22
2023-06-10T11:36:33.189Z,49.94
2023-06-10T11:39:02.935Z,49.87
2023-06-10T11:41:32.099Z,50.11
2023-06-10T11:44:09.457Z,47.57
2023-06-10T11:46:37.386Z,47.42
2023-06-10T11:49:06.452Z,48.88
2023-06-10T11:51:42.078Z,48.86
2023-06-10T11:54:12.108Z,47.07
2023-06-10T11:56:39.093Z,47.57
2023-06-10T11:59:10.762Z,57.79
2023-06-10T12:01:44.343Z,65.92
2023-06-10T12:04:14.382Z,69.41
2023-06-10T12:06:49.237Z,76.28
2023-06-10T12:09:27.410Z,83.13
2023-06-10T12:12:01.066Z,85.19
2023-06-10T12:15:07.320Z,85.05
2023-06-10T12:17:35.605Z,83.15
2023-06-10T12:20:23.732Z,82.90
2023-06-10T12:22:50.798Z,83.22
2023-06-10T12:25:17.777Z,87.17
2023-06-10T12:27:55.185Z,87.27
2023-06-10T12:30:23.415Z,88.48
2023-06-10T12:32:51.309Z,87.72
2023-06-10T12:35:20.963Z,88.47
2023-06-10T12:38:08.149Z,84.48
2023-06-10T12:40:38.414Z,90.63
2023-06-10T12:43:05.601Z,89.21
2023-06-10T12:45:44.637Z,87.20
2023-06-10T12:48:13.783Z,85.86
2023-06-10T12:50:42.715Z,88.38
2023-06-10T12:53:12.513Z,87.46
2023-06-10T12:55:39.769Z,90.88
2023-06-10T12:58:06.845Z,89.71
2023-06-10T13:00:36.199Z,89.77
2023-06-10T13:03:04.283Z,88.90
2023-06-10T13:05:31.416Z,89.34
2023-06-10T13:07:59.213Z,93.41
2023-06-10T13:10:26.756Z,88.47
2023-06-10T13:12:55.809Z,89.67
2023-06-10T13:15:23.274Z,88.32
2023-06-10T13:17:51.896Z,88.31
2023-06-10T13:20:20.268Z,89.20
2023-06-10T13:22:48.756Z,85.49
2023-06-10T13:25:16.108Z,87.27
2023-06-10T13:27:43.690Z,87.54
2023-06-10T13:30:12.071Z,90.32
2023-06-10T13:32:39.653Z,87.68
2023-06-10T13:35:07.624Z,85.21
2023-06-10T13:37:35.299Z,87.14
2023-06-10T13:40:04.258Z,86.40
2023-06-10T13:42:31.627Z,86.28
2023-06-10T13:44:58.583Z,85.41
2023-06-10T13:47:26.701Z,86.70
2023-06-10T13:49:53.733Z,84.93
2023-06-10T13:52:20.771Z,84.33
2023-06-10T13:54:47.640Z,83.47
2023-06-10T13:57:14.591Z,85.22
2023-06-10T13:59:41.605Z,84.49
2023-06-10T14:02:08.694Z,80.10
2023-06-10T14:04:35.781Z,78.63
2023-06-10T14:07:02.642Z,79.55
2023-06-10T14:09:29.847Z,77.19
2023-06-10T14:11:56.762Z,81.34
2023-06-10T14:14:24.342Z,79.62
2023-06-10T14:16:51.491Z,76.62
2023-06-10T14:19:18.729Z,75.93
2023-06-10T14:21:45.850Z,76.27
2023-06-10T14:24:12.844Z,77.95
2023-06-10T14:26:39.874Z,77.21
2023-06-10T14:29:08.072Z,74.96
2023-06-10T14:31:35.149Z,76.38
2023-06-10T14:34:02.079Z,77.00
2023-06-10T14:36:29.003Z,76.84
2023-06-10T14:38:56.277Z,76.10
2023-06-10T14:41:23.529Z,74.45
2023-06-10T14:43:50.512Z,74.50
2023-06-10T14:46:17.674Z,74.27
2023-06-10T14:48:44.790Z,77.44
2023-06-10T14:51:11.678Z,74.69
2023-06-10T14:53:39.002Z,76.70
2023-06-10T14:56:06.360Z,75.14
2023-06-10T14:58:33.172Z,74.60
2023-06-10T15:01:00.557Z,72.67
2023-06-10T15:03:27.992Z,74.31
2023-06-10T15:05:54.863Z,75.51
2023-06-10T15:08:21.762Z,76.57
2023-06-10T15:10:49.819Z,78.76
2023-06-10T15:13:16.704Z,74.72
2023-06-10T15:15:43.668Z,77.67
2023-06-10T15:18:10.872Z,77.79
2023-06-10T15:20:38.521Z,80.42
2023-06-10T15:23:05.574Z,80.31
2023-06-10T15:25:32.689Z,80.08
2023-06-10T15:27:59.687Z,80.91
2023-06-10T15:30:26.911Z,81.93
2023-06-10T15:32:54.108Z,83.58
2023-06-10T15:35:21.320Z,82.85
2023-06-10T15:37:48.632Z,82.85
2023-06-10T15:40:16.254Z,81.07
2023-06-10T15:42:43.236Z,79.29
2023-06-10T15:45:10.921Z,78.66
2023-06-10T15:47:38.117Z,78.14
2023-06-10T15:50:05.688Z,76.90
2023-06-10T15:52:32.718Z,77.39
2023-06-10T15:54:59.697Z,78.39
2023-06-10T15:57:27.345Z,78.06
2023-06-10T15:59:55.078Z,81.45
2023-06-10T16:02:22.401Z,83.21
2023-06-10T16:04:49.886Z,83.37
2023-06-10T16:07:16.795Z,81.88
2023-06-10T16:09:43.819Z,81.22
2023-06-10T16:12:11.384Z,82.31
2023-06-10T16:14:38.366Z,82.23
2023-06-10T16:17:05.726Z,82.79
2023-06-10T16:19:32.939Z,81.97
2023-06-10T16:22:00.046Z,82.45
2023-06-10T16:24:27.079Z,79.87
2023-06-10T16:26:54.127Z,75.32
2023-06-10T16:29:21.063Z,68.21
2023-06-10T16:31:49.445Z,58.68
2023-06-10T16:34:17.800Z,53.31
2023-06-10T16:36:45.218Z,47.43
2023-06-10T16:39:12.112Z,45.51
2023-06-10T16:41:40.137Z,43.06
2023-06-10T16:44:07.085Z,43.61
2023-06-10T16:46:34.015Z,41.22
2023-06-10T16:49:00.975Z,39.90
2023-06-10T16:51:28.029Z,39.62
2023-06-10T16:53:54.942Z,38.92
2023-06-10T16:56:22.594Z,38.17
2023-06-10T16:58:49.985Z,38.42
2023-06-10T17:01:17.438Z,39.26
2023-06-10T17:03:44.427Z,38.37
2023-06-10T17:06:11.778Z,38.15
2023-06-10T17:08:38.634Z,40.57
2023-06-10T17:11:05.588Z,45.16
2023-06-10T17:13:32.800Z,48.20
2023-06-10T17:15:59.732Z,51.54
2023-06-10T17:18:26.722Z,54.76
2023-06-10T17:20:53.686Z,58.04
2023-06-10T17:23:20.731Z,63.15
2023-06-10T17:25:47.622Z,63.38
2023-06-10T17:28:14.586Z,65.85
2023-06-10T17:30:41.590Z,68.68
2023-06-10T17:33:08.658Z,72.21
2023-06-10T17:35:35.787Z,74.63
2023-06-10T17:38:02.695Z,75.23
2023-06-10T17:40:29.645Z,76.83
2023-06-10T17:42:56.724Z,76.94
2023-06-10T17:45:23.646Z,79.33
2023-06-10T17:47:50.692Z,77.98
2023-06-10T17:50:19.957Z,78.54
2023-06-10T17:52:47.232Z,80.37
2023-06-10T17:55:14.228Z,82.47
2023-06-10T17:57:41.307Z,82.52
2023-06-10T18:00:08.893Z,83.48
2023-06-10T18:02:36.499Z,84.25
2023-06-10T18:05:03.949Z,84.54
2023-06-10T18:07:31.468Z,85.36
2023-06-10T18:09:58.908Z,86.17
2023-06-10T18:12:26.326Z,87.12
2023-06-10T18:14:53.257Z,88.25
2023-06-10T18:17:20.202Z,88.31
2023-06-10T18:19:47.212Z,91.77
2023-06-10T18:22:14.208Z,92.53
2023-06-10T18:24:41.118Z,91.67
2023-06-10T18:27:09.374Z,93.60
2023-06-10T18:29:36.308Z,93.79
2023-06-10T18:32:03.354Z,96.03
2023-06-10T18:34:30.574Z,97.66
2023-06-10T18:36:57.531Z,98.51
2023-06-10T18:39:24.500Z,99.64
2023-06-10T18:41:51.686Z,100.00
2023-06-10T18:44:18.767Z,100.00
2023-06-10T18:46:45.678Z,100.00
2023-06-10T18:49:12.717Z,100.00
2023-06-10T18:51:39.630Z,100.00
2023-06-10T18:54:06.634Z,100.00
2023-06-10T18:56:33.741Z,100.00
2023-06-10T18:59:00.950Z,100.00
2023-06-10T19:01:27.908Z,100.00
2023-06-10T19:03:54.987Z,100.00
2023-06-10T19:06:23.231Z,100.00
2023-06-10T19:08:50.205Z,100.00
2023-06-10T19:11:18.068Z,100.00
2023-06-10T19:13:45.357Z,100.00
2023-06-10T19:16:12.201Z,100.00
2023-06-10T19:18:39.540Z,100.00
2023-06-10T19:21:08.241Z,100.00
2023-06-10T19:23:37.056Z,100.00
2023-06-10T19:26:04.895Z,100.00
2023-06-10T19:28:31.841Z,100.00
2023-06-10T19:30:58.716Z,100.00
2023-06-10T19:33:25.865Z,100.00
2023-06-10T19:35:52.869Z,100.00
2023-06-10T19:38:20.482Z,100.00
2023-06-10T19:40:48.443Z,100.00
2023-06-10T19:43:15.759Z,100.00
2023-06-10T19:45:42.749Z,100.00
2023-06-10T19:48:11.723Z,100.00
2023-06-10T19:50:39.015Z,100.00
2023-06-10T19:53:05.899Z,100.00
2023-06-10T19:55:34.802Z,100.00
2023-06-10T19:58:03.738Z,100.00
2023-06-10T20:00:30.660Z,100.00
2023-06-10T20:02:57.782Z,100.00
2023-06-10T20:05:24.973Z,100.00
2023-06-10T20:07:51.964Z,100.00
2023-06-10T20:10:19.539Z,100.00
2023-06-10T20:12:46.646Z,100.00
2023-06-10T20:15:13.728Z,100.00
2023-06-10T20:17:41.071Z,100.00
2023-06-10T20:20:08.621Z,100.00
2023-06-10T20:22:35.590Z,100.00
2023-06-10T20:25:02.606Z,100.00
2023-06-10T20:27:29.689Z,100.00
2023-06-10T20:29:57.419Z,100.00
2023-06-10T20:32:24.769Z,100.00
2023-06-10T20:34:52.110Z,100.00
2023-06-10T20:37:19.118Z,100.00
2023-06-10T20:39:46.176Z,100.00
2023-06-10T20:42:16.007Z,100.00
2023-06-10T20:44:44.162Z,100.00
2023-06-10T20:47:11.302Z,100.00
2023-06-10T20:49:38.282Z,100.00
2023-06-10T20:52:05.313Z,100.00
2023-06-10T20:54:32.313Z,100.00
2023-06-10T20:56:59.240Z,100.00
2023-06-10T20:59:26.146Z,100.00
2023-06-10T21:01:53.240Z,100.00
2023-06-10T21:04:20.350Z,100.00
2023-06-10T21:06:47.297Z,100.00
2023-06-10T21:09:14.375Z,100.00
2023-06-10T21:11:41.537Z,100.00
2023-06-10T21:14:09.137Z,100.00
2023-06-10T21:16:36.562Z,100.00
2023-06-10T21:19:04.069Z,100.00
2023-06-10T21:21:31.259Z,100.00
2023-06-10T21:23:58.455Z,100.00
2023-06-10T21:26:26.222Z,100.00
2023-06-10T21:28:55.360Z,100.00
2023-06-10T21:31:22.647Z,100.00
2023-06-10T21:33:49.980Z,100.00
2023-06-10T21:36:19.127Z,100.00
2023-06-10T21:38:46.675Z,100.00
2023-06-10T21:41:13.627Z,100.00
2023-06-10T21:43:40.925Z,100.00
2023-06-10T21:46:08.133Z,100.00
2023-06-10T21:48:36.566Z,100.00
2023-06-10T21:51:03.554Z,100.00
2023-06-10T21:53:30.781Z,100.00
2023-06-10T21:55:57.671Z,100.00
2023-06-10T21:58:24.549Z,100.00
2023-06-10T22:00:51.976Z,100.00
2023-06-10T22:03:19.866Z,100.00
2023-06-10T22:05:47.384Z,100.00
2023-06-10T22:08:14.456Z,100.00
2023-06-10T22:10:42.019Z,100.00
2023-06-10T22:13:09.213Z,100.00
2023-06-10T22:15:36.313Z,100.00
2023-06-10T22:18:06.441Z,100.00
2023-06-10T22:20:33.495Z,100.00
2023-06-10T22:23:00.657Z,100.00
2023-06-10T22:25:27.580Z,100.00
2023-06-10T22:27:54.619Z,100.00
2023-06-10T22:30:21.743Z,100.00
2023-06-10T22:32:48.738Z,100.00
2023-06-10T22:35:16.112Z,100.00
2023-06-10T22:37:43.211Z,100.00
2023-06-10T22:40:10.457Z,100.00
2023-06-10T22:42:37.301Z,100.00
2023-06-10T22:45:05.303Z,100.00
2023-06-10T22:47:32.338Z,100.00
2023-06-10T22:49:59.598Z,100.00
2023-06-10T22:52:26.637Z,100.00
2023-06-10T22:54:53.458Z,100.00
2023-06-10T22:57:20.469Z,100.00
2023-06-10T22:59:47.789Z,100.00
2023-06-10T23:02:14.980Z,100.00
2023-06-10T23:04:42.072Z,100.00
2023-06-10T23:07:10.534Z,100.00
2023-06-10T23:09:37.513Z,100.00
2023-06-10T23:12:04.775Z,100.00
2023-06-10T23:14:31.932Z,100.00
2023-06-10T23:16:58.959Z,100.00
2023-06-10T23:19:28.048Z,100.00
2023-06-10T23:21:57.279Z,100.00
2023-06-10T23:24:30.159Z,100.00
2023-06-10T23:26:59.442Z,100.00
2023-06-10T23:29:27.117Z,100.00
2023-06-10T23:31:54.943Z,100.00
2023-06-10T23:34:22.536Z,100.00
2023-06-10T23:36:49.938Z,100.00
2023-06-10T23:39:17.378Z,100.00
2023-06-10T23:41:46.350Z,100.00
2023-06-10T23:44:14.103Z,100.00
2023-06-10T23:46:41.268Z,100.00
2023-06-10T23:49:10.277Z,100.00
2023-06-10T23:51:38.472Z,100.00
2023-06-10T23:54:06.741Z,100.00
2023-06-10T23:56:33.964Z,100.00
2023-06-10T23:59:01.128Z,100.00
